Terminal Aerodrome Forecast
Issued by NWS

Home | Current Version | Previous Version | Graphics & Text | Print | Product List | Glossary On
Versions: 1 2 3 4 5 6 7 8 9 10 11 12 13 14
000
FTUS42 KMHX 271600 AAD
TAFISO
TAF AMD
KISO 271630Z 2717/2812 26005KT P6SM VCTS BKN025CB BKN035
     FM271900 23010G15KT P6SM VCTS BKN040CB
     FM272300 24008KT P6SM BKN040
     FM280100 20010KT P6SM BKN100
      AMD LTD TO CLD VIS AND WIND=

USA.gov is the U.S. government's official web portal to all federal, state and local government web resources and services.